createdAt,value
2023-05-16T00:00:41.938Z,15.23
2023-05-16T00:05:43.233Z,15.29
2023-05-16T00:10:44.622Z,15.41
2023-05-16T00:15:46.012Z,15.43
2023-05-16T00:20:48.241Z,15.44
2023-05-16T00:25:49.673Z,15.42
2023-05-16T00:30:51.013Z,15.39
2023-05-16T00:35:53.657Z,15.31
2023-05-16T00:40:55.014Z,15.36
2023-05-16T00:45:57.921Z,15.35
2023-05-16T00:51:00.367Z,15.32
2023-05-16T00:56:01.995Z,15.20
2023-05-16T01:01:07.988Z,15.19
2023-05-16T01:06:09.613Z,15.11
2023-05-16T01:11:31.039Z,14.62
2023-05-16T01:16:59.671Z,14.88
2023-05-16T01:22:34.275Z,14.85
2023-05-16T01:27:35.922Z,15.07
2023-05-16T01:32:37.225Z,14.68
2023-05-16T01:37:48.692Z,15.02
2023-05-16T01:42:54.705Z,15.02
2023-05-16T01:48:06.030Z,15.04
2023-05-16T01:53:12.005Z,14.85
2023-05-16T01:58:19.036Z,14.95
2023-05-16T02:03:20.372Z,15.01
2023-05-16T02:08:21.846Z,14.87
2023-05-16T02:13:23.212Z,14.90
2023-05-16T02:18:24.657Z,14.93
2023-05-16T02:23:25.933Z,14.82
2023-05-16T02:28:27.251Z,14.84
2023-05-16T02:33:29.022Z,14.81
2023-05-16T02:38:30.404Z,14.72
2023-05-16T02:43:32.015Z,14.75
2023-05-16T02:48:33.350Z,14.74
2023-05-16T02:53:34.659Z,14.72
2023-05-16T02:58:36.059Z,14.67
2023-05-16T03:03:37.713Z,14.60
2023-05-16T03:08:39.299Z,14.45
2023-05-16T03:13:41.564Z,14.67
2023-05-16T03:18:43.226Z,14.63
2023-05-16T03:23:44.588Z,14.60
2023-05-16T03:28:45.959Z,14.52
2023-05-16T03:33:47.259Z,14.47
2023-05-16T03:38:48.732Z,14.31
2023-05-16T03:43:50.135Z,14.21
2023-05-16T03:48:51.614Z,14.29
2023-05-16T03:53:52.875Z,14.16
2023-05-16T03:58:54.336Z,13.78
2023-05-16T04:03:55.612Z,14.03
2023-05-16T04:08:56.932Z,13.92
2023-05-16T04:13:59.524Z,13.87
2023-05-16T04:19:01.180Z,13.96
2023-05-16T04:24:02.607Z,13.86
2023-05-16T04:29:03.972Z,13.87
2023-05-16T04:34:05.874Z,13.77
2023-05-16T04:39:08.694Z,13.75
2023-05-16T04:44:11.230Z,14.18
2023-05-16T04:49:12.828Z,14.31
2023-05-16T04:54:14.578Z,14.10
2023-05-16T04:59:15.955Z,14.36
2023-05-16T05:04:17.719Z,14.10
2023-05-16T05:09:19.228Z,14.27
2023-05-16T05:14:21.604Z,14.28
2023-05-16T05:19:23.189Z,14.34
2023-05-16T05:24:24.529Z,14.50
2023-05-16T05:29:26.158Z,14.55
2023-05-16T05:34:27.424Z,14.55
2023-05-16T05:39:28.746Z,14.30
2023-05-16T05:44:30.690Z,14.41
2023-05-16T05:49:32.586Z,14.25
2023-05-16T05:54:33.967Z,14.13
2023-05-16T05:59:35.574Z,14.17
2023-05-16T06:04:36.954Z,13.81
2023-05-16T06:09:38.451Z,13.95
2023-05-16T06:14:39.935Z,14.03
2023-05-16T06:19:41.432Z,13.80
2023-05-16T06:24:42.998Z,13.92
2023-05-16T06:29:44.366Z,13.93
2023-05-16T06:34:45.678Z,13.88
2023-05-16T06:39:47.133Z,14.12
2023-05-16T06:44:48.589Z,14.11
2023-05-16T06:49:50.862Z,14.10
2023-05-16T06:54:52.708Z,14.09
2023-05-16T06:59:54.145Z,14.18
2023-05-16T07:04:55.678Z,14.06
2023-05-16T07:09:56.997Z,14.05
2023-05-16T07:14:58.413Z,14.21
2023-05-16T07:20:01.825Z,13.77
2023-05-16T07:25:05.799Z,13.75
2023-05-16T07:30:09.785Z,13.97
2023-05-16T07:35:11.373Z,13.90
2023-05-16T07:40:13.201Z,14.03
2023-05-16T07:45:14.850Z,14.01
2023-05-16T07:50:16.361Z,13.87
2023-05-16T07:55:17.818Z,13.76
2023-05-16T08:00:20.152Z,13.73
2023-05-16T08:05:21.824Z,13.60
2023-05-16T08:10:26.321Z,13.63
2023-05-16T08:15:28.618Z,13.21
2023-05-16T08:20:30.508Z,13.27
2023-05-16T08:25:32.063Z,13.22
2023-05-16T08:30:33.563Z,13.35
2023-05-16T08:35:35.513Z,13.19
2023-05-16T08:40:36.933Z,13.15
2023-05-16T08:45:40.152Z,13.24
2023-05-16T08:50:42.906Z,13.27
2023-05-16T08:55:45.609Z,13.42
2023-05-16T09:00:47.965Z,13.38
2023-05-16T09:05:50.004Z,13.54
2023-05-16T09:10:51.325Z,13.68
2023-05-16T09:16:13.069Z,13.52
2023-05-16T09:21:15.766Z,13.37
2023-05-16T09:26:18.776Z,13.43
2023-05-16T09:31:26.685Z,13.35
2023-05-16T09:36:28.311Z,13.47
2023-05-16T09:41:34.162Z,13.18
2023-05-16T09:46:37.527Z,13.48
2023-05-16T09:51:41.259Z,13.77
2023-05-16T09:56:50.859Z,13.63
2023-05-16T10:01:53.123Z,13.61
2023-05-16T10:06:58.989Z,13.90
2023-05-16T10:12:07.077Z,13.86
2023-05-16T10:17:12.616Z,13.84
2023-05-16T10:22:16.515Z,13.66
2023-05-16T10:27:19.432Z,13.61
2023-05-16T10:32:23.364Z,13.79
2023-05-16T10:37:25.625Z,13.88
2023-05-16T10:42:27.024Z,13.93
2023-05-16T10:47:28.467Z,14.14
2023-05-16T10:52:35.456Z,14.23
2023-05-16T10:57:37.006Z,14.17
2023-05-16T11:02:41.785Z,14.02
2023-05-16T11:07:43.948Z,14.18
2023-05-16T11:12:48.534Z,14.29
2023-05-16T11:18:03.290Z,14.40
2023-05-16T11:23:17.397Z,14.53
2023-05-16T11:28:22.557Z,14.46
2023-05-16T11:33:25.052Z,14.28
2023-05-16T11:38:27.843Z,14.50
2023-05-16T11:43:29.242Z,14.49
2023-05-16T11:48:36.255Z,14.60
2023-05-16T11:53:38.560Z,14.64
2023-05-16T11:58:40.073Z,14.91
2023-05-16T12:03:41.968Z,15.09
2023-05-16T12:08:50.607Z,15.81
2023-05-16T12:13:52.667Z,16.49
2023-05-16T12:18:54.312Z,16.98
2023-05-16T12:23:58.368Z,17.31
2023-05-16T12:29:03.209Z,17.36
2023-05-16T12:34:04.667Z,17.12
2023-05-16T12:39:06.049Z,16.74
2023-05-16T12:44:13.204Z,17.19
2023-05-16T12:49:14.837Z,17.54
2023-05-16T12:54:16.782Z,17.63
2023-05-16T12:59:19.905Z,17.54
2023-05-16T13:04:22.935Z,17.64
2023-05-16T13:09:24.419Z,17.61
2023-05-16T13:14:25.750Z,17.77
2023-05-16T13:19:27.306Z,17.74
2023-05-16T13:24:28.976Z,17.66
2023-05-16T13:29:30.707Z,17.81
2023-05-16T13:34:32.193Z,17.88
2023-05-16T13:39:33.579Z,17.99
2023-05-16T13:44:34.946Z,17.98
2023-05-16T13:49:36.357Z,17.92
2023-05-16T13:54:39.585Z,17.97
2023-05-16T14:04:46.726Z,17.84
2023-05-16T14:09:49.108Z,17.77
2023-05-16T14:14:50.516Z,17.90
2023-05-16T14:19:52.571Z,17.78
2023-05-16T14:24:53.896Z,17.83
2023-05-16T14:29:56.009Z,17.87
2023-05-16T14:34:57.369Z,17.76
2023-05-16T14:39:59.629Z,17.67
2023-05-16T14:45:01.440Z,17.45
2023-05-16T14:50:02.892Z,17.53
2023-05-16T14:55:04.965Z,17.41
2023-05-16T15:00:07.457Z,17.47
2023-05-16T15:05:09.823Z,17.39
2023-05-16T15:10:11.697Z,17.34
2023-05-16T15:15:14.938Z,17.37
2023-05-16T15:20:18.721Z,17.07
2023-05-16T15:25:21.849Z,17.31
2023-05-16T15:30:23.437Z,17.31
2023-05-16T15:35:24.954Z,17.00
2023-05-16T15:40:27.273Z,16.65
2023-05-16T15:45:29.191Z,16.71
2023-05-16T15:50:31.109Z,16.81
2023-05-16T15:55:32.486Z,16.68
2023-05-16T16:00:33.950Z,16.85
2023-05-16T16:05:35.678Z,16.84
2023-05-16T16:10:37.008Z,16.86
2023-05-16T16:15:39.331Z,16.88
2023-05-16T16:20:40.869Z,16.75
2023-05-16T16:25:42.332Z,16.81
2023-05-16T16:30:44.806Z,16.84
2023-05-16T16:35:46.279Z,16.91
2023-05-16T16:40:47.604Z,16.96
2023-05-16T16:45:49.576Z,16.84
2023-05-16T16:50:52.113Z,16.63
2023-05-16T16:55:53.465Z,16.85
2023-05-16T17:00:54.789Z,16.91
2023-05-16T17:05:56.220Z,17.10
2023-05-16T17:10:59.760Z,17.13
2023-05-16T17:16:01.450Z,17.13
2023-05-16T17:21:02.945Z,16.99
2023-05-16T17:26:04.404Z,16.84
2023-05-16T17:31:05.831Z,16.58
2023-05-16T17:36:07.856Z,16.72
2023-05-16T17:41:09.234Z,16.62
2023-05-16T17:46:10.847Z,16.55
2023-05-16T17:51:12.224Z,16.53
2023-05-16T17:56:14.059Z,16.38
2023-05-16T18:01:15.480Z,16.28
2023-05-16T18:06:17.004Z,16.37
2023-05-16T18:11:18.654Z,16.11
2023-05-16T18:16:20.287Z,16.23
2023-05-16T18:21:21.689Z,16.24
2023-05-16T18:26:23.148Z,16.14
2023-05-16T18:31:24.810Z,16.05
2023-05-16T18:36:26.213Z,16.04
2023-05-16T18:41:27.700Z,15.94
2023-05-16T18:46:29.089Z,15.75
2023-05-16T18:51:30.700Z,15.50
2023-05-16T18:56:32.348Z,15.31
2023-05-16T19:01:34.269Z,15.36
2023-05-16T19:06:35.601Z,15.38
2023-05-16T19:11:37.412Z,15.39
2023-05-16T19:16:38.747Z,15.32
2023-05-16T19:21:40.062Z,15.20
2023-05-16T19:26:41.558Z,15.29
2023-05-16T19:31:42.927Z,15.13
2023-05-16T19:36:44.389Z,15.16
2023-05-16T19:41:47.747Z,15.04
2023-05-16T19:46:54.203Z,15.02
2023-05-16T19:51:55.723Z,14.82
2023-05-16T19:56:57.044Z,14.83
2023-05-16T20:01:59.684Z,14.81
2023-05-16T20:07:01.243Z,14.66
2023-05-16T20:12:03.278Z,14.67
2023-05-16T20:17:04.674Z,14.52
2023-05-16T20:22:05.993Z,14.50
2023-05-16T20:27:07.366Z,14.53
2023-05-16T20:32:08.873Z,14.45
2023-05-16T20:37:10.264Z,14.13
2023-05-16T20:42:11.860Z,14.18
2023-05-16T20:47:13.989Z,14.17
2023-05-16T20:52:15.447Z,14.21
2023-05-16T20:57:17.656Z,14.06
2023-05-16T21:02:19.032Z,14.08
2023-05-16T21:07:21.430Z,13.96
2023-05-16T21:12:22.802Z,14.02
2023-05-16T21:17:24.144Z,13.75
2023-05-16T21:22:25.538Z,13.72
2023-05-16T21:27:27.473Z,13.79
2023-05-16T21:32:32.204Z,13.78
2023-05-16T21:37:33.876Z,13.51
2023-05-16T21:42:36.217Z,13.67
2023-05-16T21:47:37.577Z,13.57
2023-05-16T21:52:39.784Z,13.56
2023-05-16T21:57:41.237Z,13.54
2023-05-16T22:02:42.785Z,13.49
2023-05-16T22:07:44.282Z,13.39
2023-05-16T22:12:45.668Z,13.40
2023-05-16T22:17:48.576Z,13.13
2023-05-16T22:22:50.887Z,13.18
2023-05-16T22:27:52.330Z,13.11
2023-05-16T22:32:54.600Z,13.09
2023-05-16T22:37:56.018Z,13.14
2023-05-16T22:42:57.454Z,13.02
2023-05-16T22:47:58.914Z,12.91
2023-05-16T22:53:00.309Z,12.95
2023-05-16T22:58:01.833Z,12.76
2023-05-16T23:03:03.329Z,12.85
2023-05-16T23:08:05.188Z,12.80
2023-05-16T23:13:06.561Z,12.69
2023-05-16T23:18:08.100Z,12.61
2023-05-16T23:23:09.568Z,12.67
2023-05-16T23:28:10.962Z,12.70
2023-05-16T23:33:14.105Z,12.66
2023-05-16T23:38:15.822Z,12.54
2023-05-16T23:43:17.200Z,12.50
2023-05-16T23:48:18.673Z,12.52
2023-05-16T23:53:21.051Z,12.42
2023-05-16T23:58:22.455Z,12.46
